createdAt,value
2022-09-25T00:01:10.218Z,15.20
2022-09-25T00:03:37.814Z,15.20
2022-09-25T00:06:08.268Z,15.10
2022-09-25T00:08:36.782Z,15.00
2022-09-25T00:11:22.248Z,15.00
2022-09-25T00:13:49.990Z,15.00
2022-09-25T00:16:20.505Z,14.90
2022-09-25T00:19:06.222Z,15.00
2022-09-25T00:21:35.398Z,15.00
2022-09-25T00:24:08.351Z,15.00
2022-09-25T00:26:38.787Z,15.00
2022-09-25T00:29:11.205Z,15.00
2022-09-25T00:31:38.170Z,15.00
2022-09-25T00:34:06.100Z,15.00
2022-09-25T00:36:34.031Z,15.00
2022-09-25T00:39:01.710Z,15.00
2022-09-25T00:41:33.137Z,15.00
2022-09-25T00:44:02.355Z,15.10
2022-09-25T00:46:34.847Z,15.10
2022-09-25T00:49:17.662Z,15.00
2022-09-25T00:52:05.151Z,15.00
2022-09-25T00:54:36.005Z,15.00
2022-09-25T00:57:10.327Z,14.90
2022-09-25T00:59:43.303Z,14.90
2022-09-25T01:02:17.701Z,14.90
2022-09-25T01:04:47.375Z,14.90
2022-09-25T01:07:16.094Z,14.90
2022-09-25T01:09:44.440Z,15.00
2022-09-25T01:12:11.400Z,14.90
2022-09-25T01:14:40.272Z,14.80
2022-09-25T01:17:28.356Z,14.80
2022-09-25T01:20:13.415Z,14.80
2022-09-25T01:23:09.365Z,14.80
2022-09-25T01:25:42.871Z,14.70
2022-09-25T01:28:24.781Z,14.80
2022-09-25T01:30:58.922Z,14.70
2022-09-25T01:33:52.073Z,14.80
2022-09-25T01:36:28.782Z,14.80
2022-09-25T01:39:32.358Z,14.90
2022-09-25T01:42:08.755Z,14.80
2022-09-25T01:44:46.553Z,14.80
2022-09-25T01:47:20.404Z,14.70
2022-09-25T01:50:00.883Z,14.70
2022-09-25T01:52:36.118Z,14.60
2022-09-25T01:55:29.044Z,14.50
2022-09-25T01:58:03.798Z,14.40
2022-09-25T02:00:33.539Z,14.30
2022-09-25T02:03:16.038Z,14.20
2022-09-25T02:05:48.996Z,14.10
2022-09-25T02:08:23.157Z,14.00
2022-09-25T02:10:58.904Z,14.00
2022-09-25T02:13:37.236Z,14.00
2022-09-25T02:16:10.870Z,14.00
2022-09-25T02:18:56.721Z,14.00
2022-09-25T02:21:38.843Z,13.80
2022-09-25T02:24:17.671Z,13.90
2022-09-25T02:26:44.787Z,14.00
2022-09-25T02:29:14.016Z,14.00
2022-09-25T02:32:09.905Z,14.00
2022-09-25T02:34:37.680Z,13.90
2022-09-25T02:37:14.111Z,13.80
2022-09-25T02:39:43.139Z,13.80
2022-09-25T02:42:28.878Z,13.80
2022-09-25T02:44:58.914Z,13.80
2022-09-25T02:47:36.022Z,13.70
2022-09-25T02:50:34.897Z,13.70
2022-09-25T02:53:25.736Z,13.80
2022-09-25T02:56:09.193Z,13.80
2022-09-25T02:58:49.211Z,13.80
2022-09-25T03:01:20.697Z,13.90
2022-09-25T03:03:51.429Z,13.80
2022-09-25T03:06:19.443Z,13.70
2022-09-25T03:08:52.224Z,13.70
2022-09-25T03:11:22.043Z,13.70
2022-09-25T03:14:03.021Z,13.60
2022-09-25T03:16:47.738Z,13.70
2022-09-25T03:19:16.153Z,13.70
2022-09-25T03:21:43.503Z,13.70
2022-09-25T03:24:10.694Z,13.70
2022-09-25T03:26:37.833Z,13.70
2022-09-25T03:29:05.000Z,13.70
2022-09-25T03:31:32.523Z,13.70
2022-09-25T03:33:59.545Z,13.60
2022-09-25T03:36:28.748Z,13.60
2022-09-25T03:39:00.246Z,13.60
2022-09-25T03:41:30.864Z,13.60
2022-09-25T03:43:58.764Z,13.50
2022-09-25T03:46:28.762Z,13.60
2022-09-25T03:48:56.988Z,13.50
2022-09-25T03:51:26.094Z,13.50
2022-09-25T03:53:53.649Z,13.50
2022-09-25T03:56:24.368Z,13.50
2022-09-25T03:58:54.376Z,13.60
2022-09-25T04:01:22.853Z,13.60
2022-09-25T04:03:51.010Z,13.60
2022-09-25T04:06:20.777Z,13.60
2022-09-25T04:08:48.882Z,13.60
2022-09-25T04:11:20.461Z,13.60
2022-09-25T04:13:48.131Z,13.60
2022-09-25T04:16:17.294Z,13.50
2022-09-25T04:18:44.923Z,13.50
2022-09-25T04:21:13.940Z,13.50
2022-09-25T04:23:42.225Z,13.50
2022-09-25T04:26:09.814Z,13.50
2022-09-25T04:28:37.307Z,13.50
2022-09-25T04:31:05.029Z,13.50
2022-09-25T04:33:48.585Z,13.50
2022-09-25T04:36:16.990Z,13.60
2022-09-25T04:38:44.279Z,13.60
2022-09-25T04:41:11.669Z,13.50
2022-09-25T04:43:41.037Z,13.50
2022-09-25T04:46:09.567Z,13.50
2022-09-25T04:48:37.007Z,13.50
2022-09-25T04:51:05.416Z,13.50
2022-09-25T04:53:36.424Z,13.60
2022-09-25T04:56:10.864Z,13.60
2022-09-25T04:58:47.843Z,13.60
2022-09-25T05:01:17.153Z,13.50
2022-09-25T05:03:44.433Z,13.40
2022-09-25T05:06:11.652Z,13.40
2022-09-25T05:08:38.904Z,13.30
2022-09-25T05:11:08.010Z,13.50
2022-09-25T05:13:35.119Z,13.60
2022-09-25T05:16:02.362Z,13.50
2022-09-25T05:18:29.478Z,13.40
2022-09-25T05:20:56.938Z,13.40
2022-09-25T05:23:24.219Z,13.40
2022-09-25T05:25:52.997Z,13.40
2022-09-25T05:28:20.010Z,13.40
2022-09-25T05:30:47.217Z,13.40
2022-09-25T05:33:14.152Z,13.30
2022-09-25T05:35:41.138Z,13.30
2022-09-25T05:38:09.112Z,13.20
2022-09-25T05:40:39.383Z,13.10
2022-09-25T05:43:07.175Z,13.10
2022-09-25T05:45:37.441Z,13.10
2022-09-25T05:48:06.682Z,13.10
2022-09-25T05:50:34.056Z,13.20
2022-09-25T05:53:03.601Z,13.20
2022-09-25T05:55:31.458Z,13.20
2022-09-25T05:58:02.783Z,13.10
2022-09-25T06:00:32.918Z,13.10
2022-09-25T06:03:02.171Z,13.10
2022-09-25T06:05:30.014Z,13.10
2022-09-25T06:07:56.969Z,13.10
2022-09-25T06:10:26.844Z,13.10
2022-09-25T06:12:59.054Z,13.10
2022-09-25T06:15:29.690Z,13.10
2022-09-25T06:17:57.117Z,13.20
2022-09-25T06:20:25.174Z,13.10
2022-09-25T06:22:56.142Z,13.10
2022-09-25T06:25:26.031Z,13.10
2022-09-25T06:27:54.964Z,13.10
2022-09-25T06:30:23.869Z,13.10
2022-09-25T06:32:58.219Z,13.20
2022-09-25T06:35:25.879Z,13.40
2022-09-25T06:37:56.377Z,13.40
2022-09-25T06:40:23.392Z,13.30
2022-09-25T06:42:56.155Z,13.30
2022-09-25T06:45:23.615Z,13.30
2022-09-25T06:47:50.750Z,13.30
2022-09-25T06:50:17.580Z,13.30
2022-09-25T06:52:45.158Z,13.30
2022-09-25T06:55:12.410Z,13.40
2022-09-25T06:57:39.692Z,13.50
2022-09-25T07:00:08.080Z,13.50
2022-09-25T07:02:53.924Z,13.50
2022-09-25T07:05:21.520Z,13.40
2022-09-25T07:07:48.631Z,13.60
2022-09-25T07:10:16.672Z,13.50
2022-09-25T07:12:43.734Z,13.50
2022-09-25T07:15:12.263Z,13.60
2022-09-25T07:17:43.110Z,13.60
2022-09-25T07:20:12.822Z,13.60
2022-09-25T07:22:41.266Z,13.60
2022-09-25T07:25:09.848Z,13.60
2022-09-25T07:27:37.122Z,13.60
2022-09-25T07:30:05.503Z,13.70
2022-09-25T07:32:32.890Z,13.70
2022-09-25T07:35:00.337Z,13.70
2022-09-25T07:37:27.866Z,13.70
2022-09-25T07:39:54.789Z,13.70
2022-09-25T07:42:22.087Z,13.80
2022-09-25T07:44:49.577Z,13.80
2022-09-25T07:47:17.939Z,13.80
2022-09-25T07:49:45.382Z,13.80
2022-09-25T07:52:13.967Z,13.90
2022-09-25T07:54:41.055Z,13.90
2022-09-25T07:57:08.249Z,14.00
2022-09-25T07:59:35.377Z,13.90
2022-09-25T08:02:04.061Z,13.90
2022-09-25T08:04:31.226Z,13.90
2022-09-25T08:07:01.748Z,14.00
2022-09-25T08:09:29.462Z,14.10
2022-09-25T08:11:56.477Z,14.10
2022-09-25T08:14:27.006Z,14.10
2022-09-25T08:16:56.121Z,14.20
2022-09-25T08:19:24.142Z,14.30
2022-09-25T08:21:51.205Z,14.20
2022-09-25T08:24:18.156Z,14.10
2022-09-25T08:26:47.424Z,13.90
2022-09-25T08:29:14.534Z,14.00
2022-09-25T08:31:41.458Z,14.00
2022-09-25T08:34:36.353Z,14.00
2022-09-25T08:37:23.266Z,14.00
2022-09-25T08:39:52.943Z,14.10
2022-09-25T08:42:33.056Z,14.20
2022-09-25T08:45:22.890Z,14.30
2022-09-25T08:48:11.580Z,14.30
2022-09-25T08:50:38.605Z,14.40
2022-09-25T08:53:28.893Z,14.50
2022-09-25T08:56:14.889Z,14.70
2022-09-25T08:58:45.109Z,14.70
2022-09-25T09:01:50.097Z,14.70
2022-09-25T09:04:54.347Z,14.70
2022-09-25T09:07:34.409Z,14.80
2022-09-25T09:10:08.243Z,14.90
2022-09-25T09:12:42.881Z,15.10
2022-09-25T09:15:32.651Z,15.10
2022-09-25T09:18:06.090Z,15.10
2022-09-25T09:20:50.855Z,15.10
2022-09-25T09:23:20.758Z,15.20
2022-09-25T09:26:06.507Z,15.40
2022-09-25T09:28:33.532Z,15.70
2022-09-25T09:31:17.321Z,15.70
2022-09-25T09:33:58.114Z,15.60
2022-09-25T09:36:56.420Z,15.60
2022-09-25T09:39:39.689Z,15.60
2022-09-25T09:42:15.632Z,15.80
2022-09-25T09:45:09.422Z,16.10
2022-09-25T09:47:53.497Z,16.20
2022-09-25T09:50:42.761Z,16.20
2022-09-25T09:53:28.727Z,16.30
2022-09-25T09:56:09.015Z,16.40
2022-09-25T09:59:12.765Z,16.50
2022-09-25T10:01:43.058Z,16.60
2022-09-25T10:04:18.224Z,16.60
2022-09-25T10:06:50.780Z,16.70
2022-09-25T10:09:18.729Z,16.90
2022-09-25T10:11:53.273Z,16.90
2022-09-25T10:14:22.533Z,16.90
2022-09-25T10:16:52.649Z,17.00
2022-09-25T10:19:26.035Z,17.00
2022-09-25T10:22:03.384Z,16.70
2022-09-25T10:24:54.953Z,16.90
2022-09-25T10:27:27.407Z,17.10
2022-09-25T10:30:08.869Z,17.00
2022-09-25T10:32:58.077Z,17.00
2022-09-25T10:35:39.245Z,16.90
2022-09-25T10:38:17.159Z,16.90
2022-09-25T10:40:47.637Z,16.80
2022-09-25T10:43:21.117Z,16.90
2022-09-25T10:45:58.701Z,17.00
2022-09-25T10:48:48.936Z,17.20
2022-09-25T10:51:21.435Z,17.20
2022-09-25T10:53:53.850Z,17.30
2022-09-25T10:56:22.837Z,17.50
2022-09-25T10:58:57.598Z,17.60
2022-09-25T11:01:46.211Z,17.70
2022-09-25T11:04:16.824Z,18.00
2022-09-25T11:06:52.494Z,18.10
2022-09-25T11:09:25.693Z,18.10
2022-09-25T11:12:04.642Z,18.00
2022-09-25T11:14:34.258Z,17.90
2022-09-25T11:17:07.041Z,18.00
2022-09-25T11:19:36.390Z,17.90
2022-09-25T11:22:45.007Z,17.90
2022-09-25T11:25:20.481Z,17.80
2022-09-25T11:28:02.932Z,17.90
2022-09-25T11:30:34.145Z,17.90
2022-09-25T11:33:27.157Z,17.90
2022-09-25T11:36:00.033Z,17.80
2022-09-25T11:39:02.670Z,18.00
2022-09-25T11:41:29.568Z,18.20
2022-09-25T11:44:06.008Z,18.50
2022-09-25T11:46:36.294Z,18.30
2022-09-25T11:49:15.640Z,18.30
2022-09-25T11:52:18.532Z,18.30
2022-09-25T11:54:52.712Z,18.30
2022-09-25T11:57:37.107Z,18.20
2022-09-25T12:00:21.913Z,18.10
2022-09-25T12:03:14.319Z,18.20
2022-09-25T12:05:50.206Z,18.30
2022-09-25T12:08:38.780Z,18.40
2022-09-25T12:11:24.602Z,18.30
2022-09-25T12:13:54.576Z,18.30
2022-09-25T12:16:44.123Z,18.60
2022-09-25T12:19:33.547Z,18.50
2022-09-25T12:22:54.779Z,18.30
2022-09-25T12:25:33.788Z,18.30
2022-09-25T12:29:04.285Z,18.40
2022-09-25T12:32:04.648Z,18.50
2022-09-25T12:34:42.219Z,18.70
2022-09-25T12:37:33.866Z,19.00
2022-09-25T12:40:06.103Z,18.90
2022-09-25T12:42:44.263Z,19.00
2022-09-25T12:45:38.716Z,19.00
2022-09-25T12:48:17.209Z,19.00
2022-09-25T12:51:10.696Z,18.90
2022-09-25T12:53:46.825Z,19.10
2022-09-25T12:56:32.560Z,19.20
2022-09-25T12:59:44.048Z,19.20
2022-09-25T13:02:34.135Z,19.30
2022-09-25T13:05:07.068Z,19.40
2022-09-25T13:07:41.397Z,19.20
2022-09-25T13:10:42.039Z,19.20
2022-09-25T13:13:19.525Z,19.10
2022-09-25T13:15:52.347Z,19.20
2022-09-25T13:18:23.173Z,19.40
2022-09-25T13:20:52.957Z,19.50
2022-09-25T13:23:41.802Z,19.50
2022-09-25T13:26:12.898Z,19.60
2022-09-25T13:28:49.411Z,19.60
2022-09-25T13:31:28.409Z,19.70
2022-09-25T13:33:57.832Z,19.80
2022-09-25T13:36:25.496Z,19.80
2022-09-25T13:39:24.324Z,19.90
2022-09-25T13:42:16.497Z,19.90
2022-09-25T13:44:44.037Z,19.90
2022-09-25T13:47:25.701Z,19.70
2022-09-25T13:50:11.487Z,19.60
2022-09-25T13:52:41.265Z,19.40
2022-09-25T13:55:14.321Z,19.40
2022-09-25T13:57:57.472Z,19.30
2022-09-25T14:00:58.746Z,19.30
2022-09-25T14:03:32.376Z,19.40
2022-09-25T14:06:00.971Z,19.30
2022-09-25T14:08:31.283Z,19.30
2022-09-25T14:11:02.254Z,19.20
2022-09-25T14:13:31.426Z,19.10
2022-09-25T14:16:03.570Z,18.90
2022-09-25T14:18:48.320Z,19.20
2022-09-25T14:21:20.535Z,19.30
2022-09-25T14:23:53.492Z,19.10
2022-09-25T14:26:44.989Z,19.20
2022-09-25T14:29:17.662Z,19.40
2022-09-25T14:32:25.853Z,19.60
2022-09-25T14:35:10.141Z,19.50
2022-09-25T14:37:58.134Z,19.60
2022-09-25T14:40:50.959Z,19.60
2022-09-25T14:43:54.532Z,19.80
2022-09-25T14:46:22.833Z,20.00
2022-09-25T14:49:06.120Z,20.00
2022-09-25T14:51:45.029Z,20.00
2022-09-25T14:54:18.549Z,19.80
2022-09-25T14:56:50.172Z,20.00
2022-09-25T14:59:23.394Z,20.20
2022-09-25T15:01:52.619Z,20.40
2022-09-25T15:04:28.546Z,20.60
2022-09-25T15:07:20.966Z,20.80
2022-09-25T15:09:49.453Z,21.00
2022-09-25T15:12:31.214Z,21.20
2022-09-25T15:15:01.931Z,21.30
2022-09-25T15:17:31.328Z,21.50
2022-09-25T15:20:02.665Z,21.50
2022-09-25T15:22:34.234Z,21.30
2022-09-25T15:25:04.129Z,21.10
2022-09-25T15:27:31.972Z,20.90
2022-09-25T15:30:03.135Z,20.60
2022-09-25T15:32:39.941Z,20.30
2022-09-25T15:35:20.885Z,20.10
2022-09-25T15:37:48.319Z,20.00
2022-09-25T15:40:29.216Z,20.00
2022-09-25T15:42:56.965Z,20.00
2022-09-25T15:45:43.495Z,19.80
2022-09-25T15:48:18.028Z,19.70
2022-09-25T15:50:45.533Z,19.50
2022-09-25T15:53:26.745Z,19.40
2022-09-25T15:56:30.654Z,19.30
2022-09-25T15:59:12.396Z,19.40
2022-09-25T16:02:01.793Z,19.50
2022-09-25T16:04:46.147Z,19.60
2022-09-25T16:07:24.310Z,19.60
2022-09-25T16:09:54.265Z,19.50
2022-09-25T16:12:45.985Z,19.40
2022-09-25T16:15:29.939Z,19.30
2022-09-25T16:18:05.658Z,19.20
2022-09-25T16:20:36.310Z,19.10
2022-09-25T16:23:06.230Z,19.10
2022-09-25T16:25:37.111Z,19.00
2022-09-25T16:28:31.716Z,18.90
2022-09-25T16:31:03.274Z,18.80
2022-09-25T16:33:31.701Z,18.80
2022-09-25T16:36:14.603Z,18.80
2022-09-25T16:39:08.304Z,18.80
2022-09-25T16:41:37.213Z,18.80
2022-09-25T16:44:47.109Z,18.70
2022-09-25T16:47:20.130Z,18.80
2022-09-25T16:49:50.426Z,18.80
2022-09-25T16:52:20.896Z,18.80
2022-09-25T16:54:53.864Z,18.80
2022-09-25T16:57:22.642Z,18.70
2022-09-25T16:59:50.048Z,18.60
2022-09-25T17:02:33.000Z,18.60
2022-09-25T17:05:11.215Z,18.50
2022-09-25T17:07:38.426Z,18.40
2022-09-25T17:10:05.982Z,18.20
2022-09-25T17:12:34.518Z,18.10
2022-09-25T17:15:03.138Z,18.00
2022-09-25T17:17:31.062Z,17.90
2022-09-25T17:20:00.065Z,17.90
2022-09-25T17:22:30.458Z,17.80
2022-09-25T17:25:02.218Z,17.80
2022-09-25T17:27:30.506Z,17.60
2022-09-25T17:29:57.889Z,17.70
2022-09-25T17:32:25.007Z,17.60
2022-09-25T17:34:52.399Z,17.60
2022-09-25T17:37:19.402Z,17.60
2022-09-25T17:39:46.503Z,17.60
2022-09-25T17:42:13.530Z,17.50
2022-09-25T17:44:43.514Z,17.50
2022-09-25T17:47:10.679Z,17.40
2022-09-25T17:49:37.712Z,17.40
2022-09-25T17:52:05.258Z,17.50
2022-09-25T17:54:32.447Z,17.40
2022-09-25T17:57:00.022Z,17.40
2022-09-25T17:59:27.098Z,17.40
2022-09-25T18:02:08.836Z,17.40
2022-09-25T18:04:38.048Z,17.40
2022-09-25T18:07:06.493Z,17.40
2022-09-25T18:09:33.533Z,17.40
2022-09-25T18:12:00.820Z,17.40
2022-09-25T18:14:27.855Z,17.30
2022-09-25T18:16:54.799Z,17.30
2022-09-25T18:19:40.518Z,17.30
2022-09-25T18:22:21.893Z,17.30
2022-09-25T18:24:54.306Z,17.30
2022-09-25T18:27:22.501Z,17.30
2022-09-25T18:29:51.085Z,17.20
2022-09-25T18:32:20.299Z,17.10
2022-09-25T18:34:47.775Z,17.10
2022-09-25T18:37:14.991Z,17.10
2022-09-25T18:39:43.067Z,17.00
2022-09-25T18:42:10.183Z,17.00
2022-09-25T18:44:42.290Z,17.00
2022-09-25T18:47:10.738Z,17.00
2022-09-25T18:49:38.038Z,17.00
2022-09-25T18:52:05.883Z,17.00
2022-09-25T18:54:33.169Z,17.00
2022-09-25T18:57:00.233Z,16.80
2022-09-25T18:59:27.350Z,16.80
2022-09-25T19:01:56.091Z,16.70
2022-09-25T19:04:25.712Z,16.60
2022-09-25T19:06:53.163Z,16.50
2022-09-25T19:09:24.526Z,16.50
2022-09-25T19:11:51.802Z,16.50
2022-09-25T19:14:19.902Z,16.40
2022-09-25T19:16:53.100Z,16.40
2022-09-25T19:19:20.387Z,16.40
2022-09-25T19:21:47.668Z,16.40
2022-09-25T19:24:15.342Z,16.30
2022-09-25T19:26:44.231Z,16.20
2022-09-25T19:29:11.463Z,16.20
2022-09-25T19:31:38.482Z,16.20
2022-09-25T19:34:05.765Z,16.10
2022-09-25T19:36:34.965Z,16.10
2022-09-25T19:39:03.429Z,16.10
2022-09-25T19:41:35.167Z,15.90
2022-09-25T19:44:12.315Z,15.90
2022-09-25T19:46:41.566Z,15.90
2022-09-25T19:49:09.963Z,15.90
2022-09-25T19:51:37.774Z,15.90
2022-09-25T19:54:09.980Z,15.70
2022-09-25T19:56:43.076Z,15.60
2022-09-25T19:59:14.065Z,15.50
2022-09-25T20:01:43.015Z,15.40
2022-09-25T20:04:15.733Z,15.40
2022-09-25T20:06:46.233Z,15.40
2022-09-25T20:09:13.621Z,15.30
2022-09-25T20:11:41.038Z,15.20
2022-09-25T20:14:08.171Z,15.20
2022-09-25T20:16:37.796Z,15.20
2022-09-25T20:19:06.724Z,15.20
2022-09-25T20:21:38.983Z,15.20
2022-09-25T20:24:07.041Z,15.20
2022-09-25T20:26:35.922Z,15.20
2022-09-25T20:29:08.965Z,15.10
2022-09-25T20:31:38.320Z,15.10
2022-09-25T20:34:05.783Z,15.10
2022-09-25T20:36:33.699Z,15.10
2022-09-25T20:39:01.149Z,15.00
2022-09-25T20:41:28.309Z,15.00
2022-09-25T20:43:57.589Z,14.90
2022-09-25T20:46:26.579Z,14.90
2022-09-25T20:48:57.611Z,15.00
2022-09-25T20:51:30.916Z,14.90
2022-09-25T20:54:00.154Z,14.90
2022-09-25T20:56:29.508Z,14.90
2022-09-25T20:58:57.921Z,14.90
2022-09-25T21:01:36.832Z,14.80
2022-09-25T21:04:08.026Z,14.80
2022-09-25T21:06:37.785Z,14.80
2022-09-25T21:09:21.454Z,14.80
2022-09-25T21:11:49.119Z,14.70
2022-09-25T21:14:35.684Z,14.70
2022-09-25T21:17:02.978Z,14.70
2022-09-25T21:19:30.211Z,14.60
2022-09-25T21:21:57.354Z,14.50
2022-09-25T21:24:24.581Z,14.40
2022-09-25T21:26:51.628Z,14.40
2022-09-25T21:29:18.752Z,14.40
2022-09-25T21:31:49.910Z,14.40
2022-09-25T21:34:18.304Z,14.40
2022-09-25T21:36:45.718Z,14.30
2022-09-25T21:39:13.453Z,14.30
2022-09-25T21:41:40.847Z,14.40
2022-09-25T21:44:18.853Z,14.40
2022-09-25T21:46:55.163Z,14.40
2022-09-25T21:49:22.529Z,14.30
2022-09-25T21:51:51.104Z,14.20
2022-09-25T21:54:19.085Z,14.20
2022-09-25T21:57:05.800Z,14.10
2022-09-25T21:59:35.576Z,14.10
2022-09-25T22:02:02.441Z,14.10
2022-09-25T22:04:29.409Z,14.00
2022-09-25T22:06:57.663Z,14.00
2022-09-25T22:09:25.602Z,14.00
2022-09-25T22:11:52.843Z,14.00
2022-09-25T22:14:21.144Z,14.10
2022-09-25T22:16:50.701Z,14.00
2022-09-25T22:19:21.346Z,14.00
2022-09-25T22:21:52.789Z,13.90
2022-09-25T22:24:20.371Z,13.90
2022-09-25T22:26:49.055Z,13.90
2022-09-25T22:29:16.649Z,13.90
2022-09-25T22:31:44.230Z,13.90
2022-09-25T22:34:20.533Z,13.90
2022-09-25T22:36:48.436Z,13.80
2022-09-25T22:39:17.707Z,13.80
2022-09-25T22:41:45.296Z,13.70
2022-09-25T22:44:12.418Z,13.70
2022-09-25T22:46:39.574Z,13.70
2022-09-25T22:49:06.770Z,13.70
2022-09-25T22:51:33.784Z,13.70
2022-09-25T22:54:01.155Z,13.70
2022-09-25T22:56:30.488Z,13.60
2022-09-25T22:59:06.521Z,13.60
2022-09-25T23:01:38.099Z,13.60
2022-09-25T23:04:12.701Z,13.60
2022-09-25T23:06:40.136Z,13.60
2022-09-25T23:09:19.049Z,13.60
2022-09-25T23:11:45.918Z,13.60
2022-09-25T23:14:17.306Z,13.50
2022-09-25T23:16:46.268Z,13.50
2022-09-25T23:19:14.533Z,13.50
2022-09-25T23:21:41.706Z,13.50
2022-09-25T23:24:17.126Z,13.50
2022-09-25T23:26:44.726Z,13.50
2022-09-25T23:29:13.472Z,13.50
2022-09-25T23:31:42.110Z,13.40
2022-09-25T23:34:09.900Z,13.40
2022-09-25T23:36:37.149Z,13.40
2022-09-25T23:39:06.101Z,13.40
2022-09-25T23:41:35.836Z,13.40
2022-09-25T23:44:04.726Z,13.40
2022-09-25T23:46:34.404Z,13.40
2022-09-25T23:49:02.183Z,13.40
2022-09-25T23:51:29.448Z,13.40
2022-09-25T23:53:58.946Z,13.40
2022-09-25T23:56:29.067Z,13.50
2022-09-25T23:58:57.314Z,13.50
